createdAt,value
2022-11-25T00:00:51.543Z,96321.78
2022-11-25T00:03:19.595Z,96329.94
2022-11-25T00:05:47.655Z,96328.72
2022-11-25T00:08:15.579Z,96335.81
2022-11-25T00:10:43.480Z,96330.06
2022-11-25T00:13:11.360Z,96334.34
2022-11-25T00:15:39.265Z,96340.47
2022-11-25T00:18:08.661Z,96341.50
2022-11-25T00:20:38.496Z,96343.81
2022-11-25T00:23:06.347Z,96335.78
2022-11-25T00:25:34.261Z,96339.03
2022-11-25T00:28:02.230Z,96345.00
2022-11-25T00:30:30.148Z,96340.88
2022-11-25T00:32:58.107Z,96340.25
2022-11-25T00:35:27.376Z,96342.47
2022-11-25T00:37:55.248Z,96342.31
2022-11-25T00:40:23.150Z,96333.84
2022-11-25T00:43:08.343Z,96341.97
2022-11-25T00:45:36.329Z,96343.84
2022-11-25T00:48:04.329Z,96349.19
2022-11-25T00:50:33.625Z,96347.09
2022-11-25T00:53:01.551Z,96342.72
2022-11-25T00:55:49.887Z,96346.31
2022-11-25T00:58:17.800Z,96348.38
2022-11-25T01:00:45.719Z,96349.78
2022-11-25T01:03:13.647Z,96354.91
2022-11-25T01:05:42.927Z,96358.63
2022-11-25T01:08:10.842Z,96353.00
2022-11-25T01:10:38.728Z,96360.63
2022-11-25T01:13:06.635Z,96351.56
2022-11-25T01:15:37.979Z,96356.75
2022-11-25T01:18:05.972Z,96356.81
2022-11-25T01:20:33.943Z,96355.03
2022-11-25T01:23:03.234Z,96362.25
2022-11-25T01:25:31.150Z,96367.81
2022-11-25T01:27:59.024Z,96366.50
2022-11-25T01:30:27.003Z,96367.44
2022-11-25T01:32:54.895Z,96356.84
2022-11-25T01:35:22.872Z,96363.06
2022-11-25T01:37:50.751Z,96364.44
2022-11-25T01:40:20.039Z,96364.59
2022-11-25T01:42:48.423Z,96367.06
2022-11-25T01:45:36.367Z,96363.22
2022-11-25T01:48:08.284Z,96362.94
2022-11-25T01:50:36.595Z,96355.44
2022-11-25T01:53:06.772Z,96356.44
2022-11-25T01:55:36.931Z,96366.66
2022-11-25T01:58:06.671Z,96360.63
2022-11-25T02:00:34.776Z,96352.66
2022-11-25T02:03:02.707Z,96358.56
2022-11-25T02:05:34.585Z,96358.59
2022-11-25T02:08:02.526Z,96368.94
2022-11-25T02:10:32.309Z,96360.19
2022-11-25T02:13:01.749Z,96357.88
2022-11-25T02:15:31.022Z,96355.28
2022-11-25T02:17:58.944Z,96353.16
2022-11-25T02:20:27.028Z,96355.84
2022-11-25T02:23:01.024Z,96356.84
2022-11-25T02:25:31.710Z,96358.38
2022-11-25T02:28:04.577Z,96362.09
2022-11-25T02:30:32.624Z,96364.59
2022-11-25T02:33:01.600Z,96364.34
2022-11-25T02:35:32.612Z,96376.38
2022-11-25T02:38:05.348Z,96376.56
2022-11-25T02:40:36.640Z,96379.22
2022-11-25T02:43:04.888Z,96377.66
2022-11-25T02:45:43.698Z,96377.81
2022-11-25T02:48:11.691Z,96377.88
2022-11-25T02:50:39.640Z,96376.91
2022-11-25T02:53:08.207Z,96370.00
2022-11-25T02:55:37.484Z,96369.25
2022-11-25T02:58:05.508Z,96381.94
2022-11-25T03:00:33.397Z,96377.97
2022-11-25T03:03:01.376Z,96378.03
2022-11-25T03:05:29.329Z,96369.22
2022-11-25T03:07:57.279Z,96370.75
2022-11-25T03:10:25.357Z,96378.72
2022-11-25T03:12:54.729Z,96381.28
2022-11-25T03:15:23.016Z,96388.91
2022-11-25T03:17:50.971Z,96393.09
2022-11-25T03:20:19.181Z,96395.31
2022-11-25T03:22:47.148Z,96398.72
2022-11-25T03:25:15.539Z,96400.63
2022-11-25T03:27:43.835Z,96399.13
2022-11-25T03:30:15.360Z,96405.19
2022-11-25T03:32:43.317Z,96411.31
2022-11-25T03:35:12.595Z,96416.16
2022-11-25T03:37:40.604Z,96412.97
2022-11-25T03:40:10.340Z,96421.97
2022-11-25T03:42:38.438Z,96416.19
2022-11-25T03:45:07.463Z,96417.09
2022-11-25T03:47:36.726Z,96430.53
2022-11-25T03:50:05.020Z,96423.03
2022-11-25T03:52:32.939Z,96430.59
2022-11-25T03:55:00.852Z,96422.25
2022-11-25T03:57:28.767Z,96435.81
2022-11-25T03:59:56.672Z,96440.22
2022-11-25T04:02:26.105Z,96441.84
2022-11-25T04:04:55.512Z,96433.53
2022-11-25T04:07:23.505Z,96439.16
2022-11-25T04:09:51.486Z,96439.75
2022-11-25T04:12:37.066Z,96425.72
2022-11-25T04:15:06.019Z,96436.47
2022-11-25T04:17:33.935Z,96438.19
2022-11-25T04:20:03.195Z,96442.50
2022-11-25T04:22:31.081Z,96440.16
2022-11-25T04:24:59.020Z,96440.16
2022-11-25T04:27:26.918Z,96438.38
2022-11-25T04:29:54.819Z,96439.31
2022-11-25T04:32:22.713Z,96435.84
2022-11-25T04:34:50.634Z,96431.75
2022-11-25T04:37:20.182Z,96432.81
2022-11-25T04:39:48.139Z,96440.28
2022-11-25T04:42:34.682Z,96437.00
2022-11-25T04:47:52.165Z,96445.22
2022-11-25T04:50:22.092Z,96436.88
2022-11-25T04:52:51.547Z,96445.34
2022-11-25T04:55:19.465Z,96447.09
2022-11-25T04:57:47.385Z,96442.94
2022-11-25T05:00:14.942Z,96446.38
2022-11-25T05:02:42.938Z,96436.50
2022-11-25T05:05:11.328Z,96439.09
2022-11-25T05:07:39.579Z,96441.50
2022-11-25T05:10:09.959Z,96434.09
2022-11-25T05:12:38.229Z,96432.47
2022-11-25T05:15:08.017Z,96437.38
2022-11-25T05:17:36.368Z,96434.44
2022-11-25T05:20:05.878Z,96435.56
2022-11-25T05:22:34.829Z,96429.81
2022-11-25T05:25:05.620Z,96436.53
2022-11-25T05:27:34.967Z,96435.94
2022-11-25T05:30:02.923Z,96435.94
2022-11-25T05:32:30.840Z,96432.75
2022-11-25T05:34:58.712Z,96439.44
2022-11-25T05:37:27.743Z,96433.66
2022-11-25T05:39:55.639Z,96436.09
2022-11-25T05:42:23.563Z,96439.56
2022-11-25T05:44:52.834Z,96445.50
2022-11-25T05:47:20.740Z,96448.94
2022-11-25T05:49:48.663Z,96441.53
2022-11-25T05:52:16.500Z,96444.13
2022-11-25T05:54:44.423Z,96449.19
2022-11-25T05:57:12.283Z,96452.59
2022-11-25T05:59:40.178Z,96447.63
2022-11-25T06:02:09.491Z,96452.34
2022-11-25T06:04:37.881Z,96447.44
2022-11-25T06:07:06.178Z,96451.50
2022-11-25T06:09:34.233Z,96462.56
2022-11-25T06:12:02.120Z,96458.44
2022-11-25T06:14:30.262Z,96458.28
2022-11-25T06:16:58.198Z,96455.78
2022-11-25T06:19:27.489Z,96460.53
2022-11-25T06:21:55.463Z,96464.56
2022-11-25T06:24:23.414Z,96469.09
2022-11-25T06:26:55.929Z,96472.47
2022-11-25T06:29:23.817Z,96475.03
2022-11-25T06:31:51.723Z,96469.22
2022-11-25T06:34:19.611Z,96471.41
2022-11-25T06:36:50.017Z,96473.91
2022-11-25T06:39:19.673Z,96466.63
2022-11-25T06:41:48.249Z,96463.28
2022-11-25T06:44:16.265Z,96468.91
2022-11-25T06:46:44.253Z,96473.00
2022-11-25T06:49:12.238Z,96474.63
2022-11-25T06:51:40.138Z,96468.63
2022-11-25T06:54:10.392Z,96467.59
2022-11-25T06:56:38.398Z,96467.84
2022-11-25T06:59:06.392Z,96472.94
2022-11-25T07:01:34.703Z,96475.16
2022-11-25T07:04:05.176Z,96474.63
2022-11-25T07:06:33.582Z,96479.81
2022-11-25T07:09:01.961Z,96473.03
2022-11-25T07:11:32.481Z,96481.63
2022-11-25T07:14:02.061Z,96471.56
2022-11-25T07:16:30.423Z,96477.50
2022-11-25T07:19:03.088Z,96479.19
2022-11-25T07:21:32.106Z,96478.06
2022-11-25T07:24:01.205Z,96468.78
2022-11-25T07:26:32.679Z,96478.00
2022-11-25T07:29:01.864Z,96475.03
2022-11-25T07:31:33.010Z,96481.38
2022-11-25T07:34:03.049Z,96475.38
2022-11-25T07:36:31.989Z,96477.69
2022-11-25T07:39:01.880Z,96484.78
2022-11-25T07:41:31.282Z,96480.78
2022-11-25T07:44:00.423Z,96480.00
2022-11-25T07:46:30.675Z,96480.34
2022-11-25T07:49:00.053Z,96483.38
2022-11-25T07:51:29.799Z,96481.25
2022-11-25T07:53:59.166Z,96474.63
2022-11-25T07:56:27.317Z,96468.34
2022-11-25T07:58:57.199Z,96473.19
2022-11-25T08:01:25.478Z,96470.69
2022-11-25T08:03:53.414Z,96470.47
2022-11-25T08:06:23.280Z,96469.25
2022-11-25T08:08:52.863Z,96465.25
2022-11-25T08:11:22.224Z,96476.59
2022-11-25T08:13:50.403Z,96472.41
2022-11-25T08:16:21.689Z,96472.84
2022-11-25T08:18:50.000Z,96471.91
2022-11-25T08:21:19.161Z,96471.78
2022-11-25T08:23:48.869Z,96470.28
2022-11-25T08:26:20.289Z,96479.06
2022-11-25T08:28:48.380Z,96475.31
2022-11-25T08:31:18.117Z,96472.41
2022-11-25T08:33:48.433Z,96468.88
2022-11-25T08:36:16.870Z,96462.44
2022-11-25T08:38:45.836Z,96468.22
2022-11-25T08:41:15.160Z,96455.41
2022-11-25T08:43:43.418Z,96469.56
2022-11-25T08:46:13.845Z,96461.28
2022-11-25T08:48:42.414Z,96465.00
2022-11-25T08:51:14.697Z,96473.03
2022-11-25T08:53:43.505Z,96476.81
2022-11-25T08:56:11.629Z,96469.25
2022-11-25T08:58:39.788Z,96466.03
2022-11-25T09:01:08.281Z,96470.81
2022-11-25T09:03:37.830Z,96471.00
2022-11-25T09:06:08.946Z,96474.66
2022-11-25T09:08:39.698Z,96481.94
2022-11-25T09:11:08.060Z,96488.47
2022-11-25T09:13:36.265Z,96488.19
2022-11-25T09:16:04.576Z,96488.81
2022-11-25T09:18:33.064Z,96498.25
2022-11-25T09:21:00.993Z,96495.28
2022-11-25T09:23:28.932Z,96501.28
2022-11-25T09:25:59.424Z,96501.56
2022-11-25T09:28:28.110Z,96504.41
2022-11-25T09:30:56.106Z,96497.06
2022-11-25T09:33:24.256Z,96495.88
2022-11-25T09:35:52.139Z,96484.81
2022-11-25T09:38:20.146Z,96496.72
2022-11-25T09:40:52.518Z,96502.72
2022-11-25T09:43:49.913Z,96490.88
2022-11-25T09:46:46.034Z,96500.59
2022-11-25T09:49:30.830Z,96502.78
2022-11-25T09:52:04.770Z,96500.44
2022-11-25T09:54:37.033Z,96504.72
2022-11-25T09:57:16.973Z,96494.38
2022-11-25T09:59:49.586Z,96493.63
2022-11-25T10:02:22.897Z,96492.28
2022-11-25T10:04:54.717Z,96482.28
2022-11-25T10:07:28.758Z,96485.03
2022-11-25T10:09:57.617Z,96488.28
2022-11-25T10:12:27.661Z,96482.44
2022-11-25T10:15:01.007Z,96483.94
2022-11-25T10:17:34.474Z,96478.59
2022-11-25T10:20:04.744Z,96483.53
2022-11-25T10:22:34.646Z,96484.16
2022-11-25T10:25:07.405Z,96478.75
2022-11-25T10:27:43.273Z,96475.22
2022-11-25T10:30:19.472Z,96480.75
2022-11-25T10:32:51.133Z,96471.34
2022-11-25T10:35:25.178Z,96462.00
2022-11-25T10:37:55.471Z,96461.38
2022-11-25T10:40:23.861Z,96472.69
2022-11-25T10:42:51.795Z,96471.00
2022-11-25T10:45:24.213Z,96467.88
2022-11-25T10:48:08.945Z,96469.25
2022-11-25T10:50:48.275Z,96468.97
2022-11-25T10:53:18.391Z,96464.38
2022-11-25T10:55:59.257Z,96455.66
2022-11-25T10:58:31.280Z,96454.31
2022-11-25T11:01:15.011Z,96446.75
2022-11-25T11:03:45.217Z,96448.81
2022-11-25T11:06:40.439Z,96446.50
2022-11-25T11:09:32.216Z,96450.72
2022-11-25T11:12:10.377Z,96443.09
2022-11-25T11:14:38.640Z,96443.22
2022-11-25T11:17:10.158Z,96452.69
2022-11-25T11:19:39.248Z,96447.91
2022-11-25T11:22:17.468Z,96450.59
2022-11-25T11:24:45.418Z,96449.59
2022-11-25T11:27:20.928Z,96456.28
2022-11-25T11:29:49.121Z,96453.44
2022-11-25T11:32:24.930Z,96450.88
2022-11-25T11:35:02.960Z,96444.13
2022-11-25T11:37:42.397Z,96439.03
2022-11-25T11:40:26.172Z,96446.28
2022-11-25T11:43:02.084Z,96443.72
2022-11-25T11:45:50.020Z,96446.28
2022-11-25T11:48:28.698Z,96442.78
2022-11-25T11:51:04.395Z,96438.44
2022-11-25T11:53:38.238Z,96439.97
2022-11-25T11:56:34.358Z,96450.97
2022-11-25T11:59:07.829Z,96453.34
2022-11-25T12:01:46.531Z,96445.50
2022-11-25T12:04:22.488Z,96440.19
2022-11-25T12:07:00.086Z,96440.25
2022-11-25T12:09:30.436Z,96444.47
2022-11-25T12:12:03.899Z,96437.47
2022-11-25T12:14:36.724Z,96441.47
2022-11-25T12:17:08.982Z,96436.44
2022-11-25T12:19:42.707Z,96433.69
2022-11-25T12:22:15.855Z,96438.03
2022-11-25T12:24:47.072Z,96433.69
2022-11-25T12:27:16.963Z,96440.63
2022-11-25T12:29:49.187Z,96445.88
2022-11-25T12:32:43.108Z,96436.66
2022-11-25T12:35:20.486Z,96441.00
2022-11-25T12:37:52.222Z,96439.78
2022-11-25T12:40:25.788Z,96434.78
2022-11-25T12:42:54.819Z,96440.28
2022-11-25T12:45:24.364Z,96440.44
2022-11-25T12:47:52.835Z,96444.22
2022-11-25T12:50:41.738Z,96443.25
2022-11-25T12:53:13.417Z,96439.28
2022-11-25T12:55:42.240Z,96444.13
2022-11-25T12:58:42.057Z,96447.50
2022-11-25T13:01:30.486Z,96444.06
2022-11-25T13:04:29.603Z,96452.25
2022-11-25T13:07:11.686Z,96449.47
2022-11-25T13:09:55.713Z,96449.47
2022-11-25T13:12:32.698Z,96449.53
2022-11-25T13:15:19.242Z,96451.59
2022-11-25T13:17:50.024Z,96454.22
2022-11-25T13:20:42.278Z,96454.72
2022-11-25T13:23:43.310Z,96459.38
2022-11-25T13:26:50.212Z,96451.03
2022-11-25T13:30:03.282Z,96448.31
2022-11-25T13:32:42.202Z,96458.25
2022-11-25T13:35:38.663Z,96453.88
2022-11-25T13:38:49.229Z,96458.31
2022-11-25T13:41:26.964Z,96462.56
2022-11-25T13:44:02.159Z,96465.78
2022-11-25T13:46:35.993Z,96460.59
2022-11-25T13:49:04.130Z,96471.69
2022-11-25T13:51:32.120Z,96466.50
2022-11-25T13:54:02.747Z,96475.38
2022-11-25T13:56:32.640Z,96474.28
2022-11-25T13:59:36.835Z,96477.84
2022-11-25T14:02:42.079Z,96479.06
2022-11-25T14:05:19.929Z,96480.28
2022-11-25T14:07:55.139Z,96486.91
2022-11-25T14:10:36.211Z,96484.13
2022-11-25T14:13:16.216Z,96483.28
2022-11-25T14:15:52.642Z,96483.22
2022-11-25T14:19:12.400Z,96482.25
2022-11-25T14:21:49.696Z,96482.00
2022-11-25T14:24:26.192Z,96490.75
2022-11-25T14:26:56.656Z,96491.78
2022-11-25T14:29:27.632Z,96504.72
2022-11-25T14:31:59.012Z,96494.94
2022-11-25T14:34:31.355Z,96499.41
2022-11-25T14:37:02.690Z,96508.78
2022-11-25T14:39:35.343Z,96499.84
2022-11-25T14:42:08.246Z,96499.56
2022-11-25T14:44:40.863Z,96503.50
2022-11-25T14:47:08.787Z,96505.63
2022-11-25T14:49:55.409Z,96505.03
2022-11-25T14:52:34.726Z,96509.59
2022-11-25T14:55:04.188Z,96501.75
2022-11-25T14:57:35.832Z,96510.16
2022-11-25T15:00:06.925Z,96508.63
2022-11-25T15:02:36.698Z,96506.28
2022-11-25T15:05:14.954Z,96507.81
2022-11-25T15:07:43.825Z,96507.41
2022-11-25T15:10:30.076Z,96503.25
2022-11-25T15:12:59.531Z,96500.84
2022-11-25T15:15:28.114Z,96510.66
2022-11-25T15:17:56.052Z,96510.53
2022-11-25T15:20:24.536Z,96509.44
2022-11-25T15:22:53.770Z,96504.31
2022-11-25T15:25:21.982Z,96510.09
2022-11-25T15:27:52.469Z,96514.41
2022-11-25T15:30:24.395Z,96510.31
2022-11-25T15:32:52.972Z,96511.63
2022-11-25T15:35:23.620Z,96504.31
2022-11-25T15:37:54.259Z,96511.88
2022-11-25T15:40:36.690Z,96512.69
2022-11-25T15:43:07.178Z,96515.47
2022-11-25T15:45:44.324Z,96519.56
2022-11-25T15:48:17.000Z,96519.44
2022-11-25T15:50:44.868Z,96523.75
2022-11-25T15:53:24.820Z,96526.69
2022-11-25T15:55:54.925Z,96528.66
2022-11-25T15:58:24.280Z,96523.72
2022-11-25T16:01:04.693Z,96519.34
2022-11-25T16:03:33.028Z,96518.72
2022-11-25T16:06:01.906Z,96526.41
2022-11-25T16:08:35.073Z,96516.28
2022-11-25T16:11:19.294Z,96521.69
2022-11-25T16:13:48.044Z,96518.63
2022-11-25T16:16:20.892Z,96522.94
2022-11-25T16:18:55.767Z,96528.97
2022-11-25T16:21:25.536Z,96529.84
2022-11-25T16:23:55.216Z,96522.50
2022-11-25T16:26:25.323Z,96535.16
2022-11-25T16:28:55.312Z,96530.09
2022-11-25T16:31:25.399Z,96540.09
2022-11-25T16:33:55.445Z,96532.88
2022-11-25T16:36:23.417Z,96540.53
2022-11-25T16:38:54.302Z,96548.06
2022-11-25T16:41:24.421Z,96549.09
2022-11-25T16:43:52.656Z,96553.41
2022-11-25T16:46:21.239Z,96559.97
2022-11-25T16:48:52.333Z,96549.88
2022-11-25T16:51:21.588Z,96563.38
2022-11-25T16:53:49.935Z,96544.84
2022-11-25T16:56:22.000Z,96566.09
2022-11-25T16:58:49.956Z,96570.44
2022-11-25T17:01:19.107Z,96573.09
2022-11-25T17:03:47.113Z,96569.78
2022-11-25T17:06:21.858Z,96579.78
2022-11-25T17:08:50.706Z,96575.66
2022-11-25T17:11:20.859Z,96578.97
2022-11-25T17:13:51.091Z,96575.97
2022-11-25T17:16:21.829Z,96580.09
2022-11-25T17:18:50.082Z,96587.50
2022-11-25T17:21:19.490Z,96586.28
2022-11-25T17:23:52.432Z,96588.69
2022-11-25T17:26:23.272Z,96591.53
2022-11-25T17:28:54.446Z,96596.81
2022-11-25T17:31:22.941Z,96597.56
2022-11-25T17:33:51.164Z,96597.38
2022-11-25T17:36:20.606Z,96594.84
2022-11-25T17:38:49.102Z,96594.94
2022-11-25T17:41:18.465Z,96602.59
2022-11-25T17:43:47.690Z,96609.88
2022-11-25T17:46:17.290Z,96601.00
2022-11-25T17:48:45.377Z,96609.50
2022-11-25T17:51:14.663Z,96608.31
2022-11-25T17:53:44.893Z,96607.50
2022-11-25T17:56:19.209Z,96609.19
2022-11-25T17:58:47.243Z,96620.31
2022-11-25T18:01:15.340Z,96618.22
2022-11-25T18:03:43.325Z,96622.16
2022-11-25T18:06:11.294Z,96624.03
2022-11-25T18:08:39.231Z,96620.66
2022-11-25T18:11:08.787Z,96621.97
2022-11-25T18:13:38.707Z,96625.53
2022-11-25T18:16:07.385Z,96620.66
2022-11-25T18:18:35.448Z,96634.97
2022-11-25T18:21:03.488Z,96644.97
2022-11-25T18:23:31.380Z,96639.38
2022-11-25T18:26:01.911Z,96648.53
2022-11-25T18:28:32.318Z,96651.16
2022-11-25T18:31:03.809Z,96650.16
2022-11-25T18:33:32.072Z,96656.13
2022-11-25T18:36:00.000Z,96641.19
2022-11-25T18:38:27.929Z,96651.88
2022-11-25T18:40:56.403Z,96647.13
2022-11-25T18:43:25.354Z,96652.22
2022-11-25T18:45:55.673Z,96646.56
2022-11-25T18:48:25.247Z,96649.19
2022-11-25T18:50:54.990Z,96654.34
2022-11-25T18:53:23.663Z,96656.94
2022-11-25T18:55:51.797Z,96660.53
2022-11-25T18:58:21.433Z,96663.28
2022-11-25T19:00:50.472Z,96668.84
2022-11-25T19:03:21.610Z,96667.44
2022-11-25T19:05:50.066Z,96673.44
2022-11-25T19:08:18.633Z,96675.81
2022-11-25T19:10:48.027Z,96671.00
2022-11-25T19:13:18.127Z,96677.06
2022-11-25T19:15:46.398Z,96677.25
2022-11-25T19:18:17.268Z,96678.81
2022-11-25T19:20:48.550Z,96684.63
2022-11-25T19:23:21.291Z,96686.41
2022-11-25T19:25:49.879Z,96685.91
2022-11-25T19:28:18.247Z,96689.59
2022-11-25T19:30:47.731Z,96697.19
2022-11-25T19:33:21.599Z,96695.19
2022-11-25T19:35:50.885Z,96701.38
2022-11-25T19:38:25.158Z,96704.09
2022-11-25T19:40:53.055Z,96706.56
2022-11-25T19:43:22.625Z,96703.06
2022-11-25T19:45:50.750Z,96713.38
2022-11-25T19:48:20.171Z,96710.75
2022-11-25T19:50:51.974Z,96714.09
2022-11-25T19:53:22.432Z,96721.78
2022-11-25T19:55:50.360Z,96724.28
2022-11-25T19:58:18.401Z,96724.31
2022-11-25T20:00:47.363Z,96733.41
2022-11-25T20:03:19.521Z,96738.56
2022-11-25T20:05:48.863Z,96729.38
2022-11-25T20:08:21.923Z,96732.78
2022-11-25T20:10:50.187Z,96733.59
2022-11-25T20:13:18.418Z,96735.91
2022-11-25T20:15:46.720Z,96740.81
2022-11-25T20:18:18.309Z,96740.31
2022-11-25T20:20:47.576Z,96746.44
2022-11-25T20:23:25.896Z,96747.97
2022-11-25T20:25:53.860Z,96751.25
2022-11-25T20:28:23.177Z,96752.69
2022-11-25T20:30:51.412Z,96744.38
2022-11-25T20:33:24.075Z,96757.38
2022-11-25T20:35:54.613Z,96747.88
2022-11-25T20:38:25.848Z,96755.81
2022-11-25T20:40:55.530Z,96752.50
2022-11-25T20:43:29.297Z,96758.69
2022-11-25T20:45:57.743Z,96754.38
2022-11-25T20:48:25.999Z,96763.69
2022-11-25T20:50:54.062Z,96763.72
2022-11-25T20:53:23.408Z,96769.38
2022-11-25T20:55:52.697Z,96768.88
2022-11-25T20:58:22.859Z,96767.97
2022-11-25T21:00:57.075Z,96776.50
2022-11-25T21:03:25.897Z,96780.91
2022-11-25T21:05:54.924Z,96782.41
2022-11-25T21:08:25.300Z,96768.16
2022-11-25T21:10:56.600Z,96782.13
2022-11-25T21:13:26.108Z,96782.50
2022-11-25T21:15:54.454Z,96775.34
2022-11-25T21:18:23.124Z,96772.88
2022-11-25T21:20:52.324Z,96775.94
2022-11-25T21:23:21.993Z,96776.31
2022-11-25T21:25:50.893Z,96788.13
2022-11-25T21:28:22.117Z,96786.63
2022-11-25T21:30:50.057Z,96787.16
2022-11-25T21:33:18.028Z,96788.56
2022-11-25T21:35:50.429Z,96789.97
2022-11-25T21:38:20.031Z,96795.16
2022-11-25T21:40:49.731Z,96787.09
2022-11-25T21:43:22.169Z,96798.97
2022-11-25T21:45:51.656Z,96800.97
2022-11-25T21:48:21.051Z,96803.91
2022-11-25T21:50:49.171Z,96816.06
2022-11-25T21:53:17.208Z,96812.44
2022-11-25T21:55:45.267Z,96811.19
2022-11-25T21:58:18.499Z,96828.19
2022-11-25T22:00:49.980Z,96819.81
2022-11-25T22:03:19.408Z,96831.56
2022-11-25T22:05:47.824Z,96834.31
2022-11-25T22:08:15.955Z,96851.31
2022-11-25T22:10:47.064Z,96847.44
2022-11-25T22:13:17.174Z,96863.91
2022-11-25T22:15:45.683Z,96867.16
2022-11-25T22:18:20.139Z,96877.13
2022-11-25T22:20:53.107Z,96875.25
2022-11-25T22:23:22.093Z,96867.06
2022-11-25T22:25:51.099Z,96875.16
2022-11-25T22:28:21.360Z,96863.72
2022-11-25T22:30:51.394Z,96882.81
2022-11-25T22:33:21.112Z,96885.34
2022-11-25T22:35:50.291Z,96885.72
2022-11-25T22:38:19.620Z,96888.50
2022-11-25T22:40:49.129Z,96887.34
2022-11-25T22:43:19.089Z,96892.41
2022-11-25T22:45:47.319Z,96891.00
2022-11-25T22:48:16.986Z,96896.72
2022-11-25T22:50:47.001Z,96902.72
2022-11-25T22:53:17.795Z,96897.47
2022-11-25T22:55:46.424Z,96902.25
2022-11-25T22:58:15.496Z,96904.03
2022-11-25T23:00:45.362Z,96907.59
2022-11-25T23:03:16.926Z,96913.94
2022-11-25T23:05:46.791Z,96914.69
2022-11-25T23:08:18.646Z,96914.88
2022-11-25T23:10:46.877Z,96919.22
2022-11-25T23:13:15.929Z,96920.78
2022-11-25T23:15:47.996Z,96925.00
2022-11-25T23:18:19.009Z,96909.91
2022-11-25T23:20:49.484Z,96924.97
2022-11-25T23:23:20.005Z,96921.00
2022-11-25T23:25:48.698Z,96918.03
2022-11-25T23:28:17.135Z,96918.25
2022-11-25T23:30:48.600Z,96913.97
2022-11-25T23:33:21.303Z,96927.13
2022-11-25T23:35:50.649Z,96923.81
2022-11-25T23:38:22.412Z,96927.31
2022-11-25T23:40:50.383Z,96930.53
2022-11-25T23:43:18.652Z,96930.81
2022-11-25T23:45:50.203Z,96928.41
2022-11-25T23:48:19.053Z,96927.19
2022-11-25T23:50:47.265Z,96937.16
2022-11-25T23:53:22.881Z,96932.41
2022-11-25T23:55:51.129Z,96940.03
2022-11-25T23:58:20.563Z,96935.09
